SWA136 KAUS-KABQ
Flight info
| Callsign | SWA136 |
|---|---|
| Flight time | 1h 7m |
| Altitude | 32000 |
| Route | AEROZ2 SJT WINNS CRTTR KIIDD COLTR4 |
| Aircraft | B738/M-SDE2E3FGHIRWXY/LB1 |
Departure
| Time | 2026-05-03 22:55 |
|---|---|
| Airport | Austin Bergstrom International Airport (KAUS) |
Arrival
| Time | 2026-05-04 00:03 |
|---|---|
| Airport | Albuquerque International Sunport (KABQ) |
| Time | Latitude | Longitude | Altitude | Speed | Heading |
|---|---|---|---|---|---|
| 2026-05-03 22:15 | 30.20159 | -97.66856 | 526 ft | 0 kts | 12° |
| 2026-05-03 22:45 | 30.20148 | -97.66859 | 526 ft | 4 kts | 12° |
| 2026-05-03 22:45 | 30.20123 | -97.66865 | 526 ft | 2 kts | 12° |
| 2026-05-03 22:46 | 30.20103 | -97.66872 | 526 ft | 4 kts | 45° |
| 2026-05-03 22:46 | 30.20095 | -97.66894 | 526 ft | 4 kts | 89° |
| 2026-05-03 22:46 | 30.20095 | -97.66916 | 526 ft | 0 kts | 89° |
| 2026-05-03 22:50 | 30.20094 | -97.66907 | 526 ft | 3 kts | 98° |
| 2026-05-03 22:50 | 30.20085 | -97.66864 | 526 ft | 8 kts | 106° |
| 2026-05-03 22:51 | 30.20068 | -97.66783 | 526 ft | 12 kts | 99° |
| 2026-05-03 22:51 | 30.20054 | -97.66708 | 526 ft | 9 kts | 120° |
| 2026-05-03 22:51 | 30.19993 | -97.66687 | 526 ft | 11 kts | 179° |
| 2026-05-03 22:51 | 30.19918 | -97.66666 | 526 ft | 12 kts | 137° |
| 2026-05-03 22:52 | 30.19910 | -97.66568 | 526 ft | 14 kts | 88° |
| 2026-05-03 22:52 | 30.19911 | -97.66452 | 526 ft | 15 kts | 88° |
| 2026-05-03 22:52 | 30.19915 | -97.66322 | 526 ft | 17 kts | 88° |
| 2026-05-03 22:52 | 30.19918 | -97.66179 | 526 ft | 19 kts | 89° |
| 2026-05-03 22:53 | 30.19923 | -97.66039 | 526 ft | 16 kts | 78° |
| 2026-05-03 22:53 | 30.20022 | -97.65991 | 526 ft | 18 kts | 359° |
| 2026-05-03 22:53 | 30.20153 | -97.65995 | 526 ft | 20 kts | 359° |
| 2026-05-03 22:53 | 30.20284 | -97.65999 | 526 ft | 16 kts | 358° |
| 2026-05-03 22:54 | 30.20368 | -97.65944 | 526 ft | 16 kts | 81° |
| 2026-05-03 22:54 | 30.20372 | -97.65837 | 528 ft | 13 kts | 88° |
| 2026-05-03 22:54 | 30.20310 | -97.65789 | 527 ft | 13 kts | 180° |
| 2026-05-03 22:54 | 30.20097 | -97.65782 | 525 ft | 62 kts | 179° |
| 2026-05-03 22:55 | 30.19432 | -97.65765 | 527 ft | 126 kts | 179° |
| 2026-05-03 22:55 | 30.18395 | -97.65744 | 657 ft | 166 kts | 179° |
| 2026-05-03 22:55 | 30.17245 | -97.65761 | 1464 ft | 161 kts | 187° |
| 2026-05-03 22:55 | 30.16179 | -97.66237 | 2066 ft | 179 kts | 213° |
| 2026-05-03 22:56 | 30.15154 | -97.67153 | 2618 ft | 197 kts | 213° |
| 2026-05-03 22:56 | 30.13957 | -97.68037 | 3047 ft | 211 kts | 206° |
| 2026-05-03 22:56 | 30.12675 | -97.68991 | 3389 ft | 231 kts | 218° |
| 2026-05-03 22:56 | 30.11554 | -97.70406 | 3771 ft | 250 kts | 239° |
| 2026-05-03 22:57 | 30.11242 | -97.72451 | 4130 ft | 278 kts | 277° |
| 2026-05-03 22:57 | 30.12077 | -97.74477 | 4953 ft | 284 kts | 311° |
| 2026-05-03 22:57 | 30.13465 | -97.76065 | 6020 ft | 282 kts | 316° |
| 2026-05-03 22:57 | 30.14868 | -97.77681 | 6846 ft | 284 kts | 308° |
| 2026-05-03 22:58 | 30.16083 | -97.79478 | 7712 ft | 283 kts | 306° |
| 2026-05-03 22:58 | 30.17263 | -97.81278 | 8716 ft | 278 kts | 304° |
| 2026-05-03 22:58 | 30.18404 | -97.83102 | 9540 ft | 282 kts | 304° |
| 2026-05-03 22:58 | 30.19538 | -97.84957 | 10361 ft | 284 kts | 303° |
| 2026-05-03 22:59 | 30.20693 | -97.86899 | 10702 ft | 304 kts | 303° |
| 2026-05-03 22:59 | 30.21917 | -97.88978 | 11079 ft | 319 kts | 303° |
| 2026-05-03 22:59 | 30.23171 | -97.91135 | 11718 ft | 325 kts | 303° |
| 2026-05-03 22:59 | 30.24430 | -97.93315 | 12206 ft | 337 kts | 303° |
| 2026-05-03 23:00 | 30.25799 | -97.95626 | 12348 ft | 359 kts | 303° |
| 2026-05-03 23:00 | 30.27255 | -97.98055 | 12584 ft | 374 kts | 303° |
| 2026-05-03 23:00 | 30.28750 | -98.00557 | 13046 ft | 381 kts | 303° |
| 2026-05-03 23:00 | 30.30260 | -98.03101 | 13644 ft | 385 kts | 303° |
| 2026-05-03 23:01 | 30.31774 | -98.05669 | 14218 ft | 388 kts | 303° |
| 2026-05-03 23:01 | 30.33294 | -98.08257 | 14744 ft | 391 kts | 303° |
| 2026-05-03 23:01 | 30.34823 | -98.10868 | 15331 ft | 391 kts | 303° |
| 2026-05-03 23:01 | 30.36350 | -98.13480 | 15929 ft | 392 kts | 303° |
| 2026-05-03 23:02 | 30.37880 | -98.16099 | 16506 ft | 393 kts | 303° |
| 2026-05-03 23:02 | 30.38895 | -98.17837 | 16852 ft | 393 kts | 303° |
| 2026-05-03 23:02 | 30.40429 | -98.20466 | 17386 ft | 395 kts | 303° |
| 2026-05-03 23:02 | 30.41968 | -98.23106 | 17908 ft | 397 kts | 303° |
| 2026-05-03 23:03 | 30.43515 | -98.25759 | 18407 ft | 398 kts | 303° |
| 2026-05-03 23:03 | 30.45067 | -98.28423 | 18854 ft | 399 kts | 302° |
| 2026-05-03 23:03 | 30.46514 | -98.31171 | 19292 ft | 399 kts | 297° |
| 2026-05-03 23:03 | 30.47785 | -98.34039 | 19730 ft | 400 kts | 296° |
| 2026-05-03 23:04 | 30.49020 | -98.36930 | 20229 ft | 399 kts | 295° |
| 2026-05-03 23:04 | 30.50246 | -98.39818 | 20751 ft | 398 kts | 295° |
| 2026-05-03 23:04 | 30.51479 | -98.42705 | 21158 ft | 400 kts | 295° |
| 2026-05-03 23:04 | 30.52728 | -98.45609 | 21510 ft | 403 kts | 295° |
| 2026-05-03 23:05 | 30.53990 | -98.48526 | 21889 ft | 405 kts | 295° |
| 2026-05-03 23:05 | 30.55242 | -98.51413 | 22287 ft | 407 kts | 295° |
| 2026-05-03 23:05 | 30.56518 | -98.54348 | 22695 ft | 407 kts | 295° |
| 2026-05-03 23:05 | 30.57795 | -98.57288 | 23085 ft | 409 kts | 295° |
| 2026-05-03 23:06 | 30.59079 | -98.60243 | 23455 ft | 411 kts | 295° |
| 2026-05-03 23:06 | 30.60366 | -98.63210 | 23788 ft | 412 kts | 295° |
| 2026-05-03 23:06 | 30.61656 | -98.66185 | 24102 ft | 413 kts | 295° |
| 2026-05-03 23:06 | 30.62948 | -98.69167 | 24430 ft | 413 kts | 295° |
| 2026-05-03 23:07 | 30.64240 | -98.72153 | 24747 ft | 413 kts | 295° |
| 2026-05-03 23:07 | 30.65529 | -98.75133 | 25145 ft | 411 kts | 295° |
| 2026-05-03 23:07 | 30.66811 | -98.78101 | 25490 ft | 412 kts | 295° |
| 2026-05-03 23:07 | 30.68102 | -98.81091 | 25616 ft | 417 kts | 295° |
| 2026-05-03 23:08 | 30.69407 | -98.84117 | 25822 ft | 419 kts | 295° |
| 2026-05-03 23:08 | 30.70711 | -98.87142 | 26132 ft | 419 kts | 295° |
| 2026-05-03 23:08 | 30.72018 | -98.90173 | 26455 ft | 419 kts | 295° |
| 2026-05-03 23:08 | 30.73319 | -98.93194 | 26816 ft | 417 kts | 295° |
| 2026-05-03 23:09 | 30.74612 | -98.96201 | 27251 ft | 414 kts | 295° |
| 2026-05-03 23:09 | 30.75893 | -98.99181 | 27715 ft | 410 kts | 295° |
| 2026-05-03 23:09 | 30.77146 | -99.02100 | 28147 ft | 407 kts | 295° |
| 2026-05-03 23:09 | 30.78407 | -99.05038 | 28549 ft | 405 kts | 295° |
| 2026-05-03 23:10 | 30.79659 | -99.07960 | 28956 ft | 403 kts | 295° |
| 2026-05-03 23:10 | 30.80906 | -99.10871 | 29402 ft | 400 kts | 295° |
| 2026-05-03 23:10 | 30.82140 | -99.13754 | 29860 ft | 397 kts | 295° |
| 2026-05-03 23:10 | 30.83367 | -99.16624 | 30258 ft | 395 kts | 295° |
| 2026-05-03 23:11 | 30.84587 | -99.19478 | 30608 ft | 393 kts | 295° |
| 2026-05-03 23:11 | 30.85802 | -99.22326 | 30989 ft | 391 kts | 295° |
| 2026-05-03 23:11 | 30.87005 | -99.25146 | 31387 ft | 388 kts | 295° |
| 2026-05-03 23:11 | 30.88198 | -99.27944 | 31807 ft | 384 kts | 295° |
| 2026-05-03 23:12 | 30.89385 | -99.30730 | 32046 ft | 385 kts | 295° |
| 2026-05-03 23:12 | 30.98316 | -99.51761 | 32065 ft | 394 kts | 295° |
| 2026-05-03 23:13 | 31.07898 | -99.74460 | 32035 ft | 384 kts | 295° |
| 2026-05-03 23:13 | 31.17130 | -99.96465 | 32067 ft | 376 kts | 295° |
| 2026-05-03 23:14 | 31.26408 | -100.18716 | 32074 ft | 387 kts | 295° |
| 2026-05-03 23:14 | 31.35587 | -100.40860 | 32066 ft | 392 kts | 295° |
| 2026-05-03 23:15 | 31.38543 | -100.46150 | 32088 ft | 386 kts | 306° |
| 2026-05-03 23:15 | 31.47166 | -100.55495 | 32080 ft | 387 kts | 313° |
| 2026-05-03 23:16 | 31.63240 | -100.72027 | 32092 ft | 388 kts | 313° |
| 2026-05-03 23:16 | 31.79686 | -100.89103 | 32052 ft | 401 kts | 313° |
| 2026-05-03 23:17 | 31.96361 | -101.06478 | 32007 ft | 396 kts | 313° |
| 2026-05-03 23:17 | 32.12524 | -101.23416 | 32030 ft | 384 kts | 313° |
| 2026-05-03 23:18 | 32.28678 | -101.40445 | 32086 ft | 396 kts | 313° |
| 2026-05-03 23:18 | 32.45401 | -101.58141 | 31991 ft | 405 kts | 312° |
| 2026-05-03 23:19 | 32.61975 | -101.75767 | 32038 ft | 393 kts | 312° |
| 2026-05-03 23:19 | 32.78109 | -101.93032 | 32090 ft | 391 kts | 312° |
| 2026-05-03 23:20 | 32.94361 | -102.10511 | 32040 ft | 404 kts | 312° |
| 2026-05-03 23:20 | 33.11116 | -102.28607 | 31982 ft | 404 kts | 311° |
| 2026-05-03 23:21 | 33.27490 | -102.46393 | 31971 ft | 391 kts | 311° |
| 2026-05-03 23:21 | 33.36983 | -102.56899 | 32001 ft | 393 kts | 311° |
| 2026-05-03 23:22 | 33.43153 | -102.63473 | 32016 ft | 397 kts | 311° |
| 2026-05-03 23:22 | 33.47226 | -102.67959 | 31999 ft | 398 kts | 311° |
| 2026-05-03 23:23 | 33.51312 | -102.72456 | 31992 ft | 399 kts | 311° |
| 2026-05-03 23:23 | 33.55399 | -102.76946 | 32003 ft | 398 kts | 311° |
| 2026-05-03 23:24 | 33.59402 | -102.81459 | 31960 ft | 394 kts | 306° |
| 2026-05-03 23:24 | 33.62817 | -102.86521 | 31962 ft | 389 kts | 303° |
| 2026-05-03 23:25 | 33.66193 | -102.91593 | 31955 ft | 389 kts | 303° |
| 2026-05-03 23:25 | 33.69572 | -102.96654 | 31959 ft | 388 kts | 303° |
| 2026-05-03 23:26 | 33.72946 | -103.01706 | 31955 ft | 387 kts | 303° |
| 2026-05-03 23:26 | 33.76320 | -103.06760 | 31956 ft | 387 kts | 303° |
| 2026-05-03 23:27 | 33.79675 | -103.11792 | 31965 ft | 388 kts | 303° |
| 2026-05-03 23:27 | 33.83049 | -103.16860 | 31940 ft | 388 kts | 303° |
| 2026-05-03 23:28 | 33.86424 | -103.21937 | 31947 ft | 389 kts | 303° |
| 2026-05-03 23:28 | 33.89800 | -103.27020 | 31958 ft | 389 kts | 303° |
| 2026-05-03 23:29 | 33.93181 | -103.32120 | 31954 ft | 390 kts | 303° |
| 2026-05-03 23:29 | 33.96562 | -103.37229 | 31950 ft | 390 kts | 303° |
| 2026-05-03 23:30 | 33.99952 | -103.42356 | 31965 ft | 390 kts | 303° |
| 2026-05-03 23:30 | 34.03335 | -103.47481 | 31951 ft | 391 kts | 303° |
| 2026-05-03 23:31 | 34.06726 | -103.52624 | 31944 ft | 391 kts | 303° |
| 2026-05-03 23:31 | 34.10091 | -103.57736 | 31933 ft | 391 kts | 303° |
| 2026-05-03 23:32 | 34.13474 | -103.62884 | 31929 ft | 392 kts | 303° |
| 2026-05-03 23:32 | 34.16860 | -103.68042 | 31921 ft | 392 kts | 303° |
| 2026-05-03 23:33 | 34.20243 | -103.73205 | 31910 ft | 392 kts | 303° |
| 2026-05-03 23:33 | 34.23627 | -103.78375 | 31913 ft | 392 kts | 303° |
| 2026-05-03 23:34 | 34.27006 | -103.83544 | 31892 ft | 392 kts | 303° |
| 2026-05-03 23:34 | 34.30387 | -103.88724 | 31882 ft | 392 kts | 303° |
| 2026-05-03 23:35 | 34.33730 | -103.93854 | 31904 ft | 392 kts | 303° |
| 2026-05-03 23:35 | 34.37084 | -103.99008 | 31894 ft | 392 kts | 303° |
| 2026-05-03 23:36 | 34.40454 | -104.04194 | 31898 ft | 392 kts | 303° |
| 2026-05-03 23:36 | 34.43833 | -104.09404 | 31898 ft | 393 kts | 303° |
| 2026-05-03 23:37 | 34.47210 | -104.14617 | 31895 ft | 393 kts | 303° |
| 2026-05-03 23:37 | 34.50591 | -104.19843 | 31893 ft | 394 kts | 303° |
| 2026-05-03 23:38 | 34.53976 | -104.25084 | 31892 ft | 395 kts | 303° |
| 2026-05-03 23:38 | 34.57363 | -104.30335 | 31887 ft | 395 kts | 303° |
| 2026-05-03 23:39 | 34.60745 | -104.35585 | 31879 ft | 395 kts | 303° |
| 2026-05-03 23:39 | 34.64127 | -104.40846 | 31922 ft | 395 kts | 303° |
| 2026-05-03 23:40 | 34.67505 | -104.46107 | 31921 ft | 395 kts | 303° |
| 2026-05-03 23:40 | 34.70950 | -104.51305 | 31933 ft | 396 kts | 307° |
| 2026-05-03 23:41 | 34.74683 | -104.56165 | 31959 ft | 396 kts | 307° |
| 2026-05-03 23:41 | 34.78450 | -104.61033 | 31975 ft | 394 kts | 307° |
| 2026-05-03 23:42 | 34.82201 | -104.65915 | 31999 ft | 393 kts | 307° |
| 2026-05-03 23:42 | 34.85908 | -104.70763 | 32035 ft | 393 kts | 307° |
| 2026-05-03 23:43 | 34.89630 | -104.75641 | 32012 ft | 393 kts | 307° |
| 2026-05-03 23:43 | 34.93347 | -104.80520 | 31985 ft | 392 kts | 307° |
| 2026-05-03 23:44 | 34.97059 | -104.85400 | 31963 ft | 391 kts | 307° |
| 2026-05-03 23:44 | 34.98893 | -104.87810 | 31243 ft | 391 kts | 307° |
| 2026-05-03 23:44 | 35.00730 | -104.90231 | 30685 ft | 389 kts | 307° |
| 2026-05-03 23:45 | 35.02561 | -104.92645 | 30197 ft | 385 kts | 307° |
| 2026-05-03 23:45 | 35.04371 | -104.95030 | 29605 ft | 383 kts | 307° |
| 2026-05-03 23:45 | 35.06174 | -104.97408 | 29056 ft | 379 kts | 307° |
| 2026-05-03 23:45 | 35.07932 | -104.99740 | 28530 ft | 375 kts | 305° |
| 2026-05-03 23:46 | 35.09309 | -105.02406 | 28046 ft | 362 kts | 289° |
| 2026-05-03 23:46 | 35.10048 | -105.05301 | 27596 ft | 355 kts | 281° |
| 2026-05-03 23:46 | 35.10355 | -105.08244 | 27156 ft | 352 kts | 271° |
| 2026-05-03 23:46 | 35.10125 | -105.11213 | 26701 ft | 351 kts | 263° |
| 2026-05-03 23:47 | 35.09677 | -105.14136 | 26257 ft | 349 kts | 261° |
| 2026-05-03 23:47 | 35.09197 | -105.17031 | 25808 ft | 347 kts | 261° |
| 2026-05-03 23:47 | 35.08716 | -105.19917 | 25363 ft | 345 kts | 261° |
| 2026-05-03 23:47 | 35.08246 | -105.22785 | 24943 ft | 344 kts | 261° |
| 2026-05-03 23:48 | 35.07783 | -105.25654 | 24486 ft | 344 kts | 261° |
| 2026-05-03 23:48 | 35.07324 | -105.28531 | 23933 ft | 346 kts | 262° |
| 2026-05-03 23:48 | 35.06868 | -105.31404 | 23558 ft | 343 kts | 261° |
| 2026-05-03 23:48 | 35.06414 | -105.34272 | 22973 ft | 345 kts | 261° |
| 2026-05-03 23:49 | 35.05962 | -105.37121 | 22646 ft | 340 kts | 261° |
| 2026-05-03 23:49 | 35.05521 | -105.39906 | 22201 ft | 338 kts | 261° |
| 2026-05-03 23:49 | 35.05077 | -105.42705 | 21992 ft | 334 kts | 261° |
| 2026-05-03 23:49 | 35.04663 | -105.45309 | 21968 ft | 334 kts | 261° |
| 2026-05-03 23:50 | 35.04219 | -105.48098 | 21524 ft | 335 kts | 261° |
| 2026-05-03 23:50 | 35.03922 | -105.49958 | 21348 ft | 330 kts | 262° |
| 2026-05-03 23:50 | 35.03337 | -105.53616 | 20780 ft | 330 kts | 261° |
| 2026-05-03 23:50 | 35.03044 | -105.55438 | 20501 ft | 329 kts | 262° |
| 2026-05-03 23:51 | 35.02606 | -105.58170 | 20094 ft | 327 kts | 261° |
| 2026-05-03 23:51 | 35.02168 | -105.60890 | 19716 ft | 326 kts | 261° |
| 2026-05-03 23:51 | 35.01733 | -105.63594 | 19339 ft | 324 kts | 261° |
| 2026-05-03 23:51 | 35.01300 | -105.66284 | 18988 ft | 323 kts | 262° |
| 2026-05-03 23:52 | 35.00866 | -105.68971 | 18607 ft | 322 kts | 262° |
| 2026-05-03 23:52 | 35.00434 | -105.71653 | 18223 ft | 321 kts | 262° |
| 2026-05-03 23:52 | 35.00002 | -105.74322 | 17797 ft | 321 kts | 262° |
| 2026-05-03 23:52 | 34.99571 | -105.76984 | 17386 ft | 319 kts | 261° |
| 2026-05-03 23:53 | 34.99140 | -105.79643 | 16963 ft | 319 kts | 261° |
| 2026-05-03 23:53 | 34.98710 | -105.82284 | 16587 ft | 317 kts | 261° |
| 2026-05-03 23:53 | 34.98282 | -105.84917 | 16213 ft | 316 kts | 261° |
| 2026-05-03 23:53 | 34.97857 | -105.87531 | 15847 ft | 314 kts | 261° |
| 2026-05-03 23:54 | 34.97431 | -105.90140 | 15486 ft | 313 kts | 261° |
| 2026-05-03 23:54 | 34.97013 | -105.92702 | 15128 ft | 312 kts | 261° |
| 2026-05-03 23:54 | 34.96590 | -105.95291 | 14772 ft | 311 kts | 261° |
| 2026-05-03 23:54 | 34.96166 | -105.97876 | 14415 ft | 311 kts | 261° |
| 2026-05-03 23:55 | 34.95743 | -106.00461 | 14037 ft | 311 kts | 261° |
| 2026-05-03 23:55 | 34.95540 | -106.03039 | 13739 ft | 301 kts | 270° |
| 2026-05-03 23:55 | 34.95575 | -106.05561 | 13437 ft | 293 kts | 272° |
| 2026-05-03 23:55 | 34.95639 | -106.08004 | 13164 ft | 285 kts | 272° |
| 2026-05-03 23:56 | 34.95695 | -106.10398 | 12915 ft | 281 kts | 271° |
| 2026-05-03 23:56 | 34.95738 | -106.12786 | 12672 ft | 282 kts | 271° |
| 2026-05-03 23:56 | 34.95770 | -106.15184 | 12431 ft | 283 kts | 271° |
| 2026-05-03 23:56 | 34.95797 | -106.17592 | 12184 ft | 284 kts | 271° |
| 2026-05-03 23:57 | 34.95821 | -106.19977 | 11926 ft | 286 kts | 271° |
| 2026-05-03 23:57 | 34.95822 | -106.22406 | 11670 ft | 287 kts | 267° |
| 2026-05-03 23:57 | 34.95628 | -106.24835 | 11421 ft | 287 kts | 263° |
| 2026-05-03 23:57 | 34.95373 | -106.27242 | 11178 ft | 285 kts | 263° |
| 2026-05-03 23:58 | 34.95124 | -106.29629 | 10930 ft | 282 kts | 263° |
| 2026-05-03 23:58 | 34.94892 | -106.31985 | 10692 ft | 279 kts | 264° |
| 2026-05-03 23:58 | 34.94670 | -106.34323 | 10457 ft | 276 kts | 264° |
| 2026-05-03 23:58 | 34.94457 | -106.36637 | 10209 ft | 272 kts | 263° |
| 2026-05-03 23:59 | 34.94375 | -106.38904 | 10014 ft | 263 kts | 272° |
| 2026-05-03 23:59 | 34.94758 | -106.41023 | 9977 ft | 250 kts | 285° |
| 2026-05-03 23:59 | 34.95383 | -106.43031 | 9288 ft | 256 kts | 289° |
| 2026-05-03 23:59 | 34.96045 | -106.45051 | 8732 ft | 256 kts | 288° |
| 2026-05-04 00:00 | 34.96689 | -106.47042 | 8313 ft | 248 kts | 287° |
| 2026-05-04 00:00 | 34.97391 | -106.48929 | 7902 ft | 243 kts | 302° |
| 2026-05-04 00:00 | 34.98700 | -106.50213 | 7500 ft | 245 kts | 335° |
| 2026-05-04 00:00 | 35.00320 | -106.50582 | 7383 ft | 228 kts | 356° |
| 2026-05-04 00:01 | 35.01863 | -106.50590 | 6892 ft | 225 kts | 359° |
| 2026-05-04 00:01 | 35.03316 | -106.50787 | 6785 ft | 192 kts | 331° |
| 2026-05-04 00:01 | 35.04155 | -106.51831 | 6570 ft | 163 kts | 288° |
| 2026-05-04 00:01 | 35.04398 | -106.53139 | 6341 ft | 159 kts | 268° |
| 2026-05-04 00:02 | 35.04429 | -106.54516 | 6046 ft | 164 kts | 265° |
| 2026-05-04 00:02 | 35.04406 | -106.55923 | 5742 ft | 166 kts | 265° |
| 2026-05-04 00:02 | 35.04403 | -106.57324 | 5426 ft | 164 kts | 266° |
| 2026-05-04 00:02 | 35.04412 | -106.58661 | 5322 ft | 142 kts | 270° |
| 2026-05-04 00:03 | 35.04421 | -106.59627 | 5319 ft | 88 kts | 270° |
| 2026-05-04 00:03 | 35.04448 | -106.60120 | 5316 ft | 42 kts | 294° |
| 2026-05-04 00:03 | 35.04544 | -106.60338 | 5318 ft | 22 kts | 298° |
| 2026-05-04 00:03 | 35.04577 | -106.60518 | 5320 ft | 22 kts | 271° |
| 2026-05-04 00:04 | 35.04578 | -106.60685 | 5320 ft | 19 kts | 271° |
| 2026-05-04 00:04 | 35.04579 | -106.60843 | 5317 ft | 18 kts | 270° |
| 2026-05-04 00:04 | 35.04579 | -106.60988 | 5317 ft | 15 kts | 270° |
| 2026-05-04 00:04 | 35.04580 | -106.61102 | 5316 ft | 11 kts | 271° |
| 2026-05-04 00:05 | 35.04581 | -106.61196 | 5317 ft | 11 kts | 270° |
| 2026-05-04 00:05 | 35.04584 | -106.61287 | 5316 ft | 11 kts | 285° |
| 2026-05-04 00:05 | 35.04645 | -106.61315 | 5317 ft | 10 kts | 5° |
| 2026-05-04 00:05 | 35.04715 | -106.61307 | 5318 ft | 10 kts | 2° |
| 2026-05-04 00:06 | 35.04784 | -106.61308 | 5316 ft | 10 kts | 360° |
| 2026-05-04 00:06 | 35.04835 | -106.61338 | 5318 ft | 9 kts | 290° |
| 2026-05-04 00:06 | 35.04836 | -106.61410 | 5320 ft | 8 kts | 269° |
| 2026-05-04 00:06 | 35.04822 | -106.61470 | 5317 ft | 5 kts | 221° |
| 2026-05-04 00:07 | 35.04801 | -106.61475 | 5315 ft | 2 kts | 182° |
| 2026-05-04 00:07 | 35.04792 | -106.61475 | 5318 ft | 1 kts | 182° |
| 2026-05-04 00:07 | 35.04787 | -106.61475 | 5318 ft | 0 kts | 182° |